Time;durP1;ratioP1;P1;durP2;ratioP2;P2;SDS_P1;SDS_P2;PMS_P1;PMS_P2;Temp;Humidity;BMP_temperature;BMP_pressure;BME280_temperature;BME280_humidity;BME280_pressure;Samples;Min_cycle;Max_cycle;Signal;HPM_P1;HPM_P2
2022/08/05 00:00:18;;;;;;;5.30;2.07;;;;;;;;;;5072357;28;20433;-82
2022/08/05 00:02:45;;;;;;;1.70;1.70;;;;;;;;;;5072216;28;20834;-80
2022/08/05 00:05:11;;;;;;;1.83;1.83;;;;;;;;;;5069673;28;20785;-81
2022/08/05 00:07:37;;;;;;;2.43;2.43;;;;;;;;;;5066445;28;20941;-81
2022/08/05 00:10:03;;;;;;;6.73;2.20;;;;;;;;;;5052612;28;20831;-81
2022/08/05 00:12:29;;;;;;;2.00;2.00;;;;;;;;;;5052373;28;20422;-82
2022/08/05 00:14:55;;;;;;;2.23;2.13;;;;;;;;;;5053708;28;20474;-79
2022/08/05 00:17:21;;;;;;;2.03;2.03;;;;;;;;;;5053711;28;20464;-81
2022/08/05 00:19:47;;;;;;;2.20;2.10;;;;;;;;;;5053174;28;20918;-80
2022/08/05 00:22:13;;;;;;;5.63;2.33;;;;;;;;;;5052132;28;20440;-81
2022/08/05 00:24:39;;;;;;;2.00;2.00;;;;;;;;;;5053515;28;20426;-78
2022/08/05 00:27:06;;;;;;;1.80;1.80;;;;;;;;;;5069621;28;20767;-80
2022/08/05 00:29:32;;;;;;;4.63;2.27;;;;;;;;;;5070574;28;20433;-78
2022/08/05 00:31:58;;;;;;;1.70;1.70;;;;;;;;;;5054349;28;20438;-80
2022/08/05 00:34:24;;;;;;;5.30;1.50;;;;;;;;;;5062348;28;20426;-81
2022/08/05 00:36:49;;;;;;;1.90;1.90;;;;;;;;;;5072524;28;20417;-80
2022/08/05 00:39:15;;;;;;;2.53;2.33;;;;;;;;;;5065454;28;20444;-81
2022/08/05 00:41:45;;;;;;;1.63;1.63;;;;;;;;;;5052071;28;20184;-80
2022/08/05 00:44:11;;;;;;;2.30;2.20;;;;;;;;;;5062978;28;20468;-80
2022/08/05 00:46:37;;;;;;;1.77;1.77;;;;;;;;;;5070413;28;20421;-80
2022/08/05 00:49:03;;;;;;;6.10;2.57;;;;;;;;;;5070298;28;20787;-80
2022/08/05 00:51:29;;;;;;;2.73;2.20;;;;;;;;;;5064512;28;20188;-80
2022/08/05 00:53:55;;;;;;;2.10;2.10;;;;;;;;;;5053820;28;20480;-81
2022/08/05 00:56:21;;;;;;;4.40;2.20;;;;;;;;;;5075628;28;20526;-81
2022/08/05 00:58:47;;;;;;;2.07;2.07;;;;;;;;;;5074394;28;20851;-81
2022/08/05 01:01:16;;;;;;;2.33;2.27;;;;;;;;;;5073420;28;20457;-80
2022/08/05 01:03:43;;;;;;;2.10;2.10;;;;;;;;;;5075159;28;20417;-81
2022/08/05 01:06:10;;;;;;;2.10;1.97;;;;;;;;;;5056843;28;20438;-80
2022/08/05 01:08:36;;;;;;;11.37;2.23;;;;;;;;;;5055879;28;20771;-81
2022/08/05 01:11:12;;;;;;;12.13;2.20;;;;;;;;;;5056902;28;20938;-81
2022/08/05 01:13:45;;;;;;;1.90;1.90;;;;;;;;;;5055482;28;20410;-81
2022/08/05 01:16:20;;;;;;;2.10;2.10;;;;;;;;;;5056562;28;20484;-81
2022/08/05 01:18:49;;;;;;;1.70;1.70;;;;;;;;;;5055314;28;20409;-81
2022/08/05 01:21:15;;;;;;;0.90;0.90;;;;;;;;;;5058042;28;20521;-81
2022/08/05 01:23:54;;;;;;;1.60;1.60;;;;;;;;;;5073085;28;20455;-81
2022/08/05 01:26:31;;;;;;;1.67;1.67;;;;;;;;;;5073787;28;20421;-82
2022/08/05 01:29:05;;;;;;;1.80;1.80;;;;;;;;;;5057937;28;20514;-81
2022/08/05 01:31:41;;;;;;;2.17;2.17;;;;;;;;;;5055001;28;20929;-80
2022/08/05 01:34:09;;;;;;;3.87;2.80;;;;;;;;;;5054809;28;20816;-80
2022/08/05 01:36:39;;;;;;;2.03;2.03;;;;;;;;;;5056173;28;20477;-81
2022/08/05 01:39:05;;;;;;;1.87;1.87;;;;;;;;;;5056389;28;20422;-81
2022/08/05 01:41:34;;;;;;;2.10;2.10;;;;;;;;;;5071591;28;20457;-81
2022/08/05 01:44:00;;;;;;;2.73;1.73;;;;;;;;;;5067341;28;20457;-82
2022/08/05 01:46:27;;;;;;;9.03;2.20;;;;;;;;;;5051285;28;20427;-82
2022/08/05 01:48:54;;;;;;;2.80;1.93;;;;;;;;;;5054181;28;20492;-82
2022/08/05 01:51:20;;;;;;;1.87;1.87;;;;;;;;;;5060675;28;20422;-82
2022/08/05 01:53:49;;;;;;;2.27;2.10;;;;;;;;;;5054107;28;20470;-81
2022/08/05 01:56:15;;;;;;;2.37;2.17;;;;;;;;;;5054519;28;20580;-82
2022/08/05 01:58:42;;;;;;;2.20;2.03;;;;;;;;;;5055408;28;20430;-82
2022/08/05 02:01:08;;;;;;;2.20;2.17;;;;;;;;;;5054227;28;20433;-81
2022/08/05 02:03:36;;;;;;;2.27;2.07;;;;;;;;;;5052181;28;21132;-82
2022/08/05 02:06:04;;;;;;;2.23;2.13;;;;;;;;;;5056644;28;20427;-82
2022/08/05 02:08:30;;;;;;;2.73;1.97;;;;;;;;;;5055035;28;20862;-81
2022/08/05 02:10:59;;;;;;;1.70;1.70;;;;;;;;;;5054111;28;20454;-82
2022/08/05 02:13:26;;;;;;;2.17;2.07;;;;;;;;;;5053744;28;20922;-82
2022/08/05 02:16:02;;;;;;;6.23;1.93;;;;;;;;;;5054341;28;20993;-81
2022/08/05 02:18:32;;;;;;;2.07;2.07;;;;;;;;;;5054446;28;20472;-82
2022/08/05 02:21:17;;;;;;;2.03;1.93;;;;;;;;;;5053968;28;20436;-81
2022/08/05 02:23:45;;;;;;;2.33;2.13;;;;;;;;;;5058098;28;20429;-81
2022/08/05 02:26:12;;;;;;;6.23;1.67;;;;;;;;;;5071595;28;20425;-80
2022/08/05 02:28:41;;;;;;;2.73;2.63;;;;;;;;;;5073853;28;20472;-82
2022/08/05 02:31:08;;;;;;;5.23;2.00;;;;;;;;;;5072763;28;20433;-81
2022/08/05 02:33:36;;;;;;;2.03;1.93;;;;;;;;;;5064767;28;20512;-81
2022/08/05 02:36:02;;;;;;;2.83;2.30;;;;;;;;;;5064359;28;20512;-82
2022/08/05 02:38:29;;;;;;;1.83;1.53;;;;;;;;;;5073920;28;20426;-82
2022/08/05 02:40:57;;;;;;;1.60;1.60;;;;;;;;;;5059250;28;20434;-79
2022/08/05 02:43:24;;;;;;;1.60;1.60;;;;;;;;;;5053808;28;20452;-77
2022/08/05 02:45:50;;;;;;;2.00;2.00;;;;;;;;;;5055047;28;20430;-81
2022/08/05 02:48:16;;;;;;;2.60;2.50;;;;;;;;;;5053681;28;20426;-80
2022/08/05 02:50:45;;;;;;;1.93;1.93;;;;;;;;;;5062298;28;20480;-76
2022/08/05 02:53:12;;;;;;;2.10;1.90;;;;;;;;;;5070219;28;20433;-81
2022/08/05 02:55:38;;;;;;;2.17;2.07;;;;;;;;;;5071927;28;20516;-81
2022/08/05 02:58:04;;;;;;;2.80;2.30;;;;;;;;;;5072092;28;20440;-76
2022/08/05 03:00:30;;;;;;;1.90;1.90;;;;;;;;;;5073016;28;20532;-77
2022/08/05 03:02:57;;;;;;;3.00;2.80;;;;;;;;;;5053438;28;20426;-81
2022/08/05 03:05:22;;;;;;;8.47;3.17;;;;;;;;;;5053106;28;20801;-76
2022/08/05 03:07:49;;;;;;;2.30;2.30;;;;;;;;;;5053577;28;20935;-77
2022/08/05 03:10:16;;;;;;;2.47;2.17;;;;;;;;;;5052282;28;20536;-79
2022/08/05 03:12:42;;;;;;;2.10;2.00;;;;;;;;;;5053203;28;20509;-78
2022/08/05 03:15:09;;;;;;;5.10;2.07;;;;;;;;;;5053308;28;20556;-78
2022/08/05 03:17:35;;;;;;;2.30;2.20;;;;;;;;;;5053696;28;20194;-76
2022/08/05 03:20:01;;;;;;;2.50;2.30;;;;;;;;;;5052871;28;20477;-79
2022/08/05 03:22:27;;;;;;;2.33;2.33;;;;;;;;;;5052895;28;20438;-76
2022/08/05 03:24:54;;;;;;;2.37;2.27;;;;;;;;;;5053337;28;20445;-80
2022/08/05 03:27:20;;;;;;;2.20;2.00;;;;;;;;;;5054239;28;20469;-77
2022/08/05 03:29:46;;;;;;;2.20;2.10;;;;;;;;;;5062944;28;20433;-80
2022/08/05 03:32:14;;;;;;;2.23;2.13;;;;;;;;;;5071152;28;20479;-78
2022/08/05 03:34:40;;;;;;;2.23;2.10;;;;;;;;;;5065554;28;20923;-81
2022/08/05 03:37:06;;;;;;;2.00;2.00;;;;;;;;;;5054208;28;20434;-79
2022/08/05 03:39:32;;;;;;;3.50;2.00;;;;;;;;;;5054554;28;20521;-77
2022/08/05 03:41:58;;;;;;;1.90;1.90;;;;;;;;;;5067478;28;20453;-77
2022/08/05 03:44:24;;;;;;;3.60;1.93;;;;;;;;;;5072474;28;20928;-75
2022/08/05 03:46:51;;;;;;;3.03;1.97;;;;;;;;;;5071654;28;20479;-74
2022/08/05 03:49:17;;;;;;;3.00;2.13;;;;;;;;;;5069025;28;20961;-75
2022/08/05 03:51:48;;;;;;;1.63;1.60;;;;;;;;;;5069631;28;20828;-81
2022/08/05 03:54:18;;;;;;;6.47;6.10;;;;;;;;;;5072378;28;20485;-80
2022/08/05 03:56:45;;;;;;;6.17;5.70;;;;;;;;;;5070209;28;20538;-78
2022/08/05 03:59:20;;;;;;;2.40;2.40;;;;;;;;;;5053763;28;20430;-79
2022/08/05 04:01:47;;;;;;;2.33;2.33;;;;;;;;;;5052269;28;20568;-81
2022/08/05 04:04:14;;;;;;;2.07;1.97;;;;;;;;;;5058404;28;20425;-79
2022/08/05 04:06:40;;;;;;;2.23;2.23;;;;;;;;;;5066218;28;20430;-81
2022/08/05 04:09:07;;;;;;;2.17;2.17;;;;;;;;;;5051412;28;20430;-82
2022/08/05 04:11:34;;;;;;;2.77;2.60;;;;;;;;;;5053193;28;20497;-76
2022/08/05 04:14:00;;;;;;;2.63;2.53;;;;;;;;;;5052642;28;20434;-78
2022/08/05 04:16:26;;;;;;;3.00;2.83;;;;;;;;;;5051356;28;20470;-79
2022/08/05 04:18:52;;;;;;;2.57;2.47;;;;;;;;;;5052248;28;20418;-80
2022/08/05 04:21:18;;;;;;;2.10;2.00;;;;;;;;;;5053635;28;20434;-79
2022/08/05 04:23:44;;;;;;;2.30;2.10;;;;;;;;;;5053125;28;20435;-79
2022/08/05 04:26:11;;;;;;;2.40;2.20;;;;;;;;;;5064861;28;20479;-77
2022/08/05 04:28:37;;;;;;;1.90;1.80;;;;;;;;;;5073815;28;20422;-79
2022/08/05 04:31:03;;;;;;;2.47;2.40;;;;;;;;;;5071368;28;20486;-79
2022/08/05 04:33:29;;;;;;;13.23;2.10;;;;;;;;;;5058356;28;20434;-74
2022/08/05 04:35:55;;;;;;;1.83;1.73;;;;;;;;;;5057421;28;21010;-77
2022/08/05 04:38:21;;;;;;;2.43;2.33;;;;;;;;;;5056868;28;20426;-74
2022/08/05 04:40:47;;;;;;;1.80;1.80;;;;;;;;;;5055896;28;20421;-81
2022/08/05 04:43:13;;;;;;;3.80;1.93;;;;;;;;;;5056929;28;20184;-80
2022/08/05 04:45:39;;;;;;;6.20;2.73;;;;;;;;;;5055428;28;20434;-81
2022/08/05 04:48:07;;;;;;;13.47;1.77;;;;;;;;;;5055529;28;20418;-80
2022/08/05 04:50:38;;;;;;;1.93;1.83;;;;;;;;;;5055588;28;20454;-79
2022/08/05 04:53:04;;;;;;;5.43;2.13;;;;;;;;;;5063108;28;20430;-80
2022/08/05 04:55:30;;;;;;;4.10;2.20;;;;;;;;;;5055645;28;20543;-82
2022/08/05 04:57:56;;;;;;;5.70;2.00;;;;;;;;;;5055552;28;20210;-78
2022/08/05 05:00:22;;;;;;;2.63;2.10;;;;;;;;;;5055559;28;20923;-81
2022/08/05 05:02:48;;;;;;;5.37;2.60;;;;;;;;;;5059138;28;20511;-80
2022/08/05 05:05:14;;;;;;;4.17;3.77;;;;;;;;;;5061481;28;20430;-79
2022/08/05 05:07:39;;;;;;;1.70;1.40;;;;;;;;;;5062324;28;20831;-79
2022/08/05 05:10:05;;;;;;;8.17;2.20;;;;;;;;;;5074259;28;20434;-79
2022/08/05 05:12:32;;;;;;;2.40;2.40;;;;;;;;;;5061009;28;20442;-81
2022/08/05 05:14:57;;;;;;;4.50;1.80;;;;;;;;;;5070694;28;20570;-80
2022/08/05 05:17:23;;;;;;;7.73;2.17;;;;;;;;;;5075784;28;20918;-79
2022/08/05 05:19:49;;;;;;;5.70;2.47;;;;;;;;;;5056430;28;20564;-79
2022/08/05 05:22:15;;;;;;;5.53;2.80;;;;;;;;;;5055519;28;20442;-79
2022/08/05 05:24:41;;;;;;;12.90;3.90;;;;;;;;;;5055528;28;20417;-74
2022/08/05 05:27:07;;;;;;;2.17;2.10;;;;;;;;;;5055493;28;20433;-73
2022/08/05 05:29:33;;;;;;;2.30;2.20;;;;;;;;;;5055510;28;20186;-71
2022/08/05 05:31:59;;;;;;;10.93;1.93;;;;;;;;;;5060851;28;20190;-72
2022/08/05 05:34:25;;;;;;;1.90;1.80;;;;;;;;;;5074897;28;20179;-72
2022/08/05 05:36:52;;;;;;;4.33;2.63;;;;;;;;;;5075319;28;20499;-71
2022/08/05 05:39:18;;;;;;;5.53;2.50;;;;;;;;;;5074578;28;20418;-73
2022/08/05 05:41:44;;;;;;;4.00;2.60;;;;;;;;;;5074990;28;20971;-73
2022/08/05 05:44:10;;;;;;;1.83;1.70;;;;;;;;;;5075263;28;20421;-71
2022/08/05 05:46:36;;;;;;;3.03;2.17;;;;;;;;;;5075129;28;20452;-73
2022/08/05 05:49:02;;;;;;;3.17;2.47;;;;;;;;;;5074802;28;20474;-72
2022/08/05 05:51:27;;;;;;;2.80;2.60;;;;;;;;;;5074843;28;20237;-73
2022/08/05 05:53:54;;;;;;;11.70;2.00;;;;;;;;;;5074928;28;20505;-73
2022/08/05 05:56:20;;;;;;;2.47;2.30;;;;;;;;;;5074943;28;20305;-71
2022/08/05 05:58:47;;;;;;;3.03;2.60;;;;;;;;;;5075048;28;20418;-73
2022/08/05 06:01:13;;;;;;;4.63;2.23;;;;;;;;;;5073634;28;20487;-71
2022/08/05 06:03:40;;;;;;;2.83;2.63;;;;;;;;;;5074190;28;20417;-72
2022/08/05 06:06:06;;;;;;;7.40;2.07;;;;;;;;;;5074833;28;20421;-72
2022/08/05 06:08:32;;;;;;;2.33;2.13;;;;;;;;;;5074731;28;20402;-73
2022/08/05 06:10:58;;;;;;;2.77;2.00;;;;;;;;;;5074720;28;20479;-72
2022/08/05 06:13:24;;;;;;;8.73;2.53;;;;;;;;;;5074378;28;20423;-73
2022/08/05 06:15:50;;;;;;;2.50;1.77;;;;;;;;;;5073382;28;21004;-72
2022/08/05 06:18:16;;;;;;;2.57;1.80;;;;;;;;;;5074359;28;20546;-72
2022/08/05 06:20:42;;;;;;;1.80;1.80;;;;;;;;;;5074703;28;20529;-73
2022/08/05 06:23:08;;;;;;;1.70;1.60;;;;;;;;;;5074133;28;20535;-71
2022/08/05 06:25:34;;;;;;;12.30;1.70;;;;;;;;;;5074629;28;20433;-71
2022/08/05 06:28:00;;;;;;;2.10;1.73;;;;;;;;;;5074428;28;20432;-70
2022/08/05 06:30:26;;;;;;;1.70;1.70;;;;;;;;;;5074365;28;20449;-72
2022/08/05 06:32:52;;;;;;;4.00;1.70;;;;;;;;;;5073471;28;20820;-71
2022/08/05 06:35:18;;;;;;;1.67;1.57;;;;;;;;;;5074119;28;20457;-70
2022/08/05 06:37:44;;;;;;;3.30;1.47;;;;;;;;;;5074221;28;20763;-71
2022/08/05 06:40:11;;;;;;;1.57;1.57;;;;;;;;;;5074194;28;20436;-71
2022/08/05 06:42:37;;;;;;;2.03;1.93;;;;;;;;;;5073792;28;20421;-73
2022/08/05 06:45:04;;;;;;;3.40;1.80;;;;;;;;;;5073937;28;20512;-70
2022/08/05 06:47:30;;;;;;;1.87;1.83;;;;;;;;;;5072500;28;20816;-72
2022/08/05 06:49:56;;;;;;;1.73;1.63;;;;;;;;;;5073778;28;20822;-71
2022/08/05 06:52:22;;;;;;;2.27;1.80;;;;;;;;;;5073558;28;20417;-71
2022/08/05 06:54:48;;;;;;;1.97;1.87;;;;;;;;;;5073572;28;20881;-72
2022/08/05 06:57:16;;;;;;;1.80;1.70;;;;;;;;;;5073867;28;20437;-71
2022/08/05 06:59:42;;;;;;;4.50;2.40;;;;;;;;;;5073838;28;20417;-72
2022/08/05 07:02:09;;;;;;;2.00;1.90;;;;;;;;;;5073223;28;21016;-72
2022/08/05 07:04:35;;;;;;;1.87;1.87;;;;;;;;;;5073424;28;20441;-71
2022/08/05 07:07:01;;;;;;;1.70;1.60;;;;;;;;;;5073493;28;20476;-72
2022/08/05 07:09:27;;;;;;;2.10;2.10;;;;;;;;;;5073554;28;20559;-73
2022/08/05 07:11:54;;;;;;;4.10;1.90;;;;;;;;;;5071955;28;20178;-71
2022/08/05 07:17:05;;;;;;;1.50;1.50;;;;;;;;;;5073669;28;20429;-71
2022/08/05 07:19:31;;;;;;;5.87;1.87;;;;;;;;;;5073021;28;20807;-71
2022/08/05 07:21:57;;;;;;;2.00;1.90;;;;;;;;;;5072945;28;20171;-73
2022/08/05 07:24:23;;;;;;;2.53;1.40;;;;;;;;;;5073422;28;20913;-72
2022/08/05 07:26:49;;;;;;;3.10;1.50;;;;;;;;;;5073340;28;20467;-73
2022/08/05 07:29:15;;;;;;;3.13;1.70;;;;;;;;;;5073213;28;20516;-72
2022/08/05 07:31:42;;;;;;;1.77;1.50;;;;;;;;;;5072858;28;20905;-73
2022/08/05 07:34:08;;;;;;;1.73;1.50;;;;;;;;;;5072943;28;20409;-73
2022/08/05 07:36:34;;;;;;;2.33;1.73;;;;;;;;;;5072931;28;20468;-72
2022/08/05 07:39:00;;;;;;;3.93;1.63;;;;;;;;;;5073126;28;20444;-73
2022/08/05 07:41:26;;;;;;;2.90;2.70;;;;;;;;;;5072636;28;20418;-72
2022/08/05 07:43:53;;;;;;;3.60;2.00;;;;;;;;;;5073081;28;20428;-72
2022/08/05 07:46:19;;;;;;;1.67;1.60;;;;;;;;;;5073060;28;20436;-71
2022/08/05 07:48:45;;;;;;;1.47;1.47;;;;;;;;;;5072689;28;20418;-73
2022/08/05 07:51:11;;;;;;;2.20;1.70;;;;;;;;;;5072832;28;20422;-70
2022/08/05 07:53:37;;;;;;;1.43;1.43;;;;;;;;;;5072311;28;20223;-73
2022/08/05 07:56:06;;;;;;;2.73;1.80;;;;;;;;;;5072783;28;20824;-70
2022/08/05 07:58:32;;;;;;;1.83;1.73;;;;;;;;;;5071630;28;20422;-72
2022/08/05 08:00:58;;;;;;;2.20;1.60;;;;;;;;;;5072716;28;20917;-73
2022/08/05 08:03:24;;;;;;;1.57;1.47;;;;;;;;;;5071636;28;20421;-73
2022/08/05 08:05:51;;;;;;;1.63;1.50;;;;;;;;;;5072798;28;20425;-73
2022/08/05 08:08:17;;;;;;;5.73;1.90;;;;;;;;;;5072674;28;20417;-73
2022/08/05 08:10:43;;;;;;;1.07;1.07;;;;;;;;;;5072881;28;20429;-73
2022/08/05 08:13:10;;;;;;;1.60;1.50;;;;;;;;;;5071121;28;20429;-71
2022/08/05 08:15:36;;;;;;;1.20;1.20;;;;;;;;;;5072534;28;20835;-74
2022/08/05 08:18:02;;;;;;;5.13;1.40;;;;;;;;;;5072338;28;20906;-70
2022/08/05 08:20:28;;;;;;;1.10;1.10;;;;;;;;;;5072707;28;20783;-72
2022/08/05 08:22:55;;;;;;;1.43;1.43;;;;;;;;;;5055067;28;20438;-70
2022/08/05 08:25:21;;;;;;;1.23;1.23;;;;;;;;;;5052266;28;20839;-71
2022/08/05 08:27:47;;;;;;;1.23;1.20;;;;;;;;;;5061009;28;20426;-74
2022/08/05 08:30:13;;;;;;;1.30;1.30;;;;;;;;;;5057909;28;20432;-74
2022/08/05 08:32:39;;;;;;;1.80;1.70;;;;;;;;;;5064899;28;20445;-74
2022/08/05 08:35:06;;;;;;;1.60;1.60;;;;;;;;;;5052933;28;20473;-73
2022/08/05 08:37:32;;;;;;;1.37;1.37;;;;;;;;;;5052313;28;20419;-74
2022/08/05 08:39:58;;;;;;;1.67;1.60;;;;;;;;;;5052301;28;20588;-75
2022/08/05 08:42:24;;;;;;;1.90;1.40;;;;;;;;;;5052149;28;20183;-75
2022/08/05 08:44:53;;;;;;;1.30;1.20;;;;;;;;;;5056569;28;20918;-75
2022/08/05 08:47:22;;;;;;;1.13;1.13;;;;;;;;;;5072075;28;20977;-75
2022/08/05 08:49:49;;;;;;;1.67;1.50;;;;;;;;;;5071024;28;20414;-75
2022/08/05 08:52:22;;;;;;;1.40;1.40;;;;;;;;;;5071912;28;20414;-75
2022/08/05 08:54:51;;;;;;;1.90;1.80;;;;;;;;;;5071368;28;20807;-76
2022/08/05 08:57:17;;;;;;;1.10;1.10;;;;;;;;;;5054116;28;20445;-75
2022/08/05 08:59:43;;;;;;;1.77;1.60;;;;;;;;;;5072232;28;20467;-74
2022/08/05 09:02:10;;;;;;;1.10;1.10;;;;;;;;;;5071394;28;20508;-75
2022/08/05 09:04:36;;;;;;;1.63;1.63;;;;;;;;;;5072244;28;20417;-74
2022/08/05 09:07:06;;;;;;;1.30;1.30;;;;;;;;;;5070426;28;20422;-76
2022/08/05 09:09:33;;;;;;;1.10;1.10;;;;;;;;;;5072226;28;20417;-75
2022/08/05 09:11:59;;;;;;;1.50;1.40;;;;;;;;;;5065039;28;20446;-74
2022/08/05 09:14:25;;;;;;;1.73;1.73;;;;;;;;;;5053003;28;20414;-75
2022/08/05 09:16:51;;;;;;;4.90;1.30;;;;;;;;;;5055748;28;20560;-74
2022/08/05 09:19:17;;;;;;;1.20;1.20;;;;;;;;;;5055314;28;20426;-74
2022/08/05 09:21:43;;;;;;;1.50;1.40;;;;;;;;;;5056311;28;20418;-75
2022/08/05 09:24:11;;;;;;;1.27;1.27;;;;;;;;;;5054255;28;20845;-75
2022/08/05 09:26:38;;;;;;;2.40;2.27;;;;;;;;;;5074046;28;20448;-74
2022/08/05 09:29:05;;;;;;;1.53;1.53;;;;;;;;;;5074332;28;20429;-75
2022/08/05 09:31:32;;;;;;;1.60;1.60;;;;;;;;;;5073382;28;20789;-75
2022/08/05 09:34:10;;;;;;;1.37;1.37;;;;;;;;;;5075055;28;20855;-76
2022/08/05 09:36:41;;;;;;;3.97;1.50;;;;;;;;;;5063616;28;20890;-76
2022/08/05 09:39:08;;;;;;;1.40;1.40;;;;;;;;;;5055443;28;20418;-74
2022/08/05 09:41:34;;;;;;;2.07;1.97;;;;;;;;;;5056002;28;20900;-76
2022/08/05 09:44:00;;;;;;;1.67;1.67;;;;;;;;;;5055219;28;20763;-75
2022/08/05 09:46:28;;;;;;;1.40;1.40;;;;;;;;;;5059274;28;20465;-75
2022/08/05 09:48:54;;;;;;;1.70;1.60;;;;;;;;;;5070087;28;20414;-74
2022/08/05 09:51:50;;;;;;;1.73;1.37;;;;;;;;;;5055239;28;20458;-75
2022/08/05 09:54:16;;;;;;;2.00;1.40;;;;;;;;;;5050050;28;20469;-74
2022/08/05 09:56:45;;;;;;;1.27;1.27;;;;;;;;;;5055990;28;20992;-74
2022/08/05 09:59:13;;;;;;;1.77;1.77;;;;;;;;;;5054918;28;20418;-75
2022/08/05 10:01:42;;;;;;;1.30;1.20;;;;;;;;;;5054537;28;20458;-74
2022/08/05 10:04:12;;;;;;;1.37;1.37;;;;;;;;;;5053277;28;20434;-75
2022/08/05 10:06:54;;;;;;;1.43;1.37;;;;;;;;;;5052501;28;20419;-74
2022/08/05 10:09:21;;;;;;;1.67;1.60;;;;;;;;;;5054323;28;20413;-74
2022/08/05 10:11:47;;;;;;;1.13;1.13;;;;;;;;;;5065278;28;20472;-74
2022/08/05 10:14:27;;;;;;;1.57;1.57;;;;;;;;;;5054226;28;20409;-74
2022/08/05 10:16:57;;;;;;;1.47;1.30;;;;;;;;;;5052763;28;20844;-75
2022/08/05 10:19:24;;;;;;;1.80;1.70;;;;;;;;;;5054321;28;20467;-75
2022/08/05 10:21:50;;;;;;;2.53;1.53;;;;;;;;;;5068997;28;20918;-74
2022/08/05 10:24:17;;;;;;;1.10;1.00;;;;;;;;;;5054206;28;20923;-74
2022/08/05 10:26:44;;;;;;;1.60;1.50;;;;;;;;;;5053334;28;20953;-75
2022/08/05 10:29:10;;;;;;;1.50;1.50;;;;;;;;;;5055187;28;20434;-74
2022/08/05 10:31:40;;;;;;;2.10;1.57;;;;;;;;;;5054265;28;20434;-74
2022/08/05 10:34:09;;;;;;;1.50;1.50;;;;;;;;;;5065620;28;20433;-74
2022/08/05 10:36:36;;;;;;;2.27;2.17;;;;;;;;;;5055181;28;20493;-75
2022/08/05 10:39:04;;;;;;;1.83;1.83;;;;;;;;;;5050708;28;20439;-75
2022/08/05 10:41:34;;;;;;;1.60;1.50;;;;;;;;;;5053090;28;20521;-74
2022/08/05 10:44:02;;;;;;;1.40;1.40;;;;;;;;;;5053406;28;20414;-75
2022/08/05 10:46:43;;;;;;;4.50;1.53;;;;;;;;;;5055023;28;20439;-75
2022/08/05 10:49:09;;;;;;;1.70;1.70;;;;;;;;;;5052973;28;20658;-74
2022/08/05 10:51:45;;;;;;;1.60;1.60;;;;;;;;;;5053521;28;20859;-75
2022/08/05 10:54:12;;;;;;;1.80;1.47;;;;;;;;;;5052883;28;20576;-75
2022/08/05 10:56:48;;;;;;;1.40;1.40;;;;;;;;;;5069315;28;20473;-74
2022/08/05 10:59:25;;;;;;;1.37;1.37;;;;;;;;;;5033339;28;20415;-74
2022/08/05 11:02:05;;;;;;;1.80;1.80;;;;;;;;;;5033005;28;20419;-75
2022/08/05 11:04:31;;;;;;;1.73;1.63;;;;;;;;;;5036272;28;20422;-75
2022/08/05 11:07:00;;;;;;;1.43;1.43;;;;;;;;;;5053507;28;20431;-75
2022/08/05 11:09:27;;;;;;;1.70;1.50;;;;;;;;;;5053001;28;20465;-74
2022/08/05 11:11:53;;;;;;;2.00;1.63;;;;;;;;;;5053196;28;20414;-75
2022/08/05 11:14:23;;;;;;;1.70;1.70;;;;;;;;;;5053012;28;20513;-74
2022/08/05 11:17:08;;;;;;;2.10;1.47;;;;;;;;;;5053987;28;20535;-74
2022/08/05 11:19:44;;;;;;;1.73;1.73;;;;;;;;;;5051601;28;20830;-74
2022/08/05 11:22:36;;;;;;;2.13;1.53;;;;;;;;;;5053102;28;20819;-74
2022/08/05 11:25:20;;;;;;;1.97;1.93;;;;;;;;;;5051496;28;20434;-75
2022/08/05 11:27:46;;;;;;;1.93;1.83;;;;;;;;;;5033347;28;20449;-75
2022/08/05 11:30:12;;;;;;;2.07;1.97;;;;;;;;;;5032844;28;20411;-75
2022/08/05 11:32:38;;;;;;;2.13;1.93;;;;;;;;;;5034898;28;20430;-75
2022/08/05 11:35:04;;;;;;;2.67;1.63;;;;;;;;;;5069684;28;20417;-75
2022/08/05 11:37:40;;;;;;;1.33;1.33;;;;;;;;;;5060591;28;20196;-74
2022/08/05 11:40:06;;;;;;;1.80;1.70;;;;;;;;;;5052708;28;20414;-76
2022/08/05 11:42:33;;;;;;;2.77;1.57;;;;;;;;;;5053607;28;20422;-75
2022/08/05 11:45:04;;;;;;;3.80;2.13;;;;;;;;;;5072961;28;20500;-74
2022/08/05 11:47:31;;;;;;;2.00;1.50;;;;;;;;;;5070870;28;20479;-74
2022/08/05 11:49:59;;;;;;;1.80;1.73;;;;;;;;;;5072992;28;20417;-74
2022/08/05 11:52:26;;;;;;;1.90;1.90;;;;;;;;;;5072568;28;20471;-74
2022/08/05 11:54:52;;;;;;;1.90;1.80;;;;;;;;;;5056186;28;20877;-75
2022/08/05 11:57:19;;;;;;;3.03;2.10;;;;;;;;;;5052041;28;20931;-74
2022/08/05 11:59:45;;;;;;;2.40;1.60;;;;;;;;;;5052636;28;20430;-74
2022/08/05 12:02:11;;;;;;;1.93;1.83;;;;;;;;;;5051267;28;20616;-74
2022/08/05 12:04:42;;;;;;;1.83;1.73;;;;;;;;;;5063216;28;20525;-74
2022/08/05 12:07:09;;;;;;;1.97;1.97;;;;;;;;;;5070683;28;20448;-74
2022/08/05 12:09:39;;;;;;;1.90;1.80;;;;;;;;;;5053922;28;20458;-74
2022/08/05 12:12:06;;;;;;;1.90;1.80;;;;;;;;;;5050661;28;20426;-74
2022/08/05 12:14:40;;;;;;;2.30;2.23;;;;;;;;;;5052180;28;20832;-74
2022/08/05 12:17:07;;;;;;;8.47;2.33;;;;;;;;;;5052286;28;21006;-74
2022/08/05 12:19:40;;;;;;;1.70;1.70;;;;;;;;;;5052586;28;20426;-74
2022/08/05 12:22:06;;;;;;;5.90;1.60;;;;;;;;;;5051039;28;20840;-74
2022/08/05 12:24:32;;;;;;;3.80;1.97;;;;;;;;;;5052507;28;20414;-74
2022/08/05 12:27:00;;;;;;;1.83;1.83;;;;;;;;;;5052689;28;20447;-74
2022/08/05 12:29:27;;;;;;;4.40;2.20;;;;;;;;;;5052530;28;20895;-74
2022/08/05 12:31:53;;;;;;;2.53;1.50;;;;;;;;;;5052009;28;21367;-74
2022/08/05 12:34:22;;;;;;;2.00;1.97;;;;;;;;;;5051148;28;21004;-74
2022/08/05 12:36:49;;;;;;;2.47;1.97;;;;;;;;;;5052354;28;20249;-74
2022/08/05 12:39:16;;;;;;;5.23;2.00;;;;;;;;;;5052391;28;20426;-74
2022/08/05 12:41:42;;;;;;;1.80;1.70;;;;;;;;;;5052077;28;20449;-74
2022/08/05 12:44:11;;;;;;;1.40;1.40;;;;;;;;;;5052474;28;20406;-74
2022/08/05 12:46:40;;;;;;;2.13;1.90;;;;;;;;;;5052006;28;20422;-74
2022/08/05 12:49:10;;;;;;;1.63;1.63;;;;;;;;;;5054338;28;20434;-74
2022/08/05 12:51:46;;;;;;;1.97;1.77;;;;;;;;;;5055885;28;20422;-74
2022/08/05 12:54:18;;;;;;;1.83;1.73;;;;;;;;;;5055805;28;20450;-74
2022/08/05 12:56:46;;;;;;;2.00;1.90;;;;;;;;;;5056249;28;20477;-74
2022/08/05 12:59:18;;;;;;;1.73;1.73;;;;;;;;;;5056078;28;20464;-74
2022/08/05 13:01:45;;;;;;;2.60;1.60;;;;;;;;;;5055189;28;20439;-74
2022/08/05 13:04:12;;;;;;;1.50;1.50;;;;;;;;;;5056212;28;20402;-74
2022/08/05 13:06:39;;;;;;;1.90;1.90;;;;;;;;;;5056031;28;20509;-74
2022/08/05 13:09:11;;;;;;;3.50;2.03;;;;;;;;;;5055987;28;20445;-74
2022/08/05 13:11:39;;;;;;;5.57;2.10;;;;;;;;;;5055481;28;20421;-74
2022/08/05 13:14:15;;;;;;;3.73;3.63;;;;;;;;;;5055868;28;20469;-74
2022/08/05 13:16:47;;;;;;;4.80;4.27;;;;;;;;;;5055444;28;20465;-74
2022/08/05 13:19:13;;;;;;;7.00;2.80;;;;;;;;;;5055764;28;20464;-73
2022/08/05 13:21:40;;;;;;;1.70;1.70;;;;;;;;;;5055218;28;20528;-74
2022/08/05 13:24:06;;;;;;;1.90;1.80;;;;;;;;;;5055725;28;20422;-74
2022/08/05 13:26:33;;;;;;;2.00;1.90;;;;;;;;;;5055622;28;20951;-74
2022/08/05 13:28:59;;;;;;;4.50;1.83;;;;;;;;;;5055653;28;20414;-74
2022/08/05 13:31:25;;;;;;;4.73;1.73;;;;;;;;;;5053660;28;20426;-74
2022/08/05 13:33:51;;;;;;;1.93;1.90;;;;;;;;;;5055457;28;20421;-74
2022/08/05 13:36:17;;;;;;;2.40;2.20;;;;;;;;;;5055273;28;20306;-74
2022/08/05 13:38:43;;;;;;;1.70;1.57;;;;;;;;;;5055509;28;20271;-74
2022/08/05 13:41:12;;;;;;;1.60;1.60;;;;;;;;;;5055298;28;20893;-74
2022/08/05 13:43:38;;;;;;;2.03;1.93;;;;;;;;;;5055001;28;20406;-74
2022/08/05 13:46:04;;;;;;;1.43;1.43;;;;;;;;;;5055145;28;20506;-74
2022/08/05 13:48:30;;;;;;;1.80;1.70;;;;;;;;;;5054871;28;20435;-74
2022/08/05 13:51:04;;;;;;;1.70;1.70;;;;;;;;;;5055184;28;20785;-74
2022/08/05 13:53:32;;;;;;;1.90;1.80;;;;;;;;;;5054600;28;20219;-74
2022/08/05 13:55:58;;;;;;;1.87;1.77;;;;;;;;;;5054824;28;20524;-74
2022/08/05 13:58:24;;;;;;;2.10;1.97;;;;;;;;;;5054991;28;20426;-75
2022/08/05 14:00:50;;;;;;;1.70;1.70;;;;;;;;;;5054199;28;20191;-75
2022/08/05 14:03:16;;;;;;;2.03;1.80;;;;;;;;;;5054144;28;20430;-74
2022/08/05 14:05:41;;;;;;;3.07;2.07;;;;;;;;;;5054909;28;20199;-74
2022/08/05 14:08:07;;;;;;;2.40;1.70;;;;;;;;;;5054665;28;20222;-74
2022/08/05 14:10:34;;;;;;;1.93;1.83;;;;;;;;;;5054710;28;20306;-75
2022/08/05 14:13:00;;;;;;;2.10;2.10;;;;;;;;;;5054427;28;20199;-75
2022/08/05 14:15:26;;;;;;;1.93;1.93;;;;;;;;;;5054625;28;20457;-74
2022/08/05 14:17:52;;;;;;;1.70;1.70;;;;;;;;;;5054382;28;20426;-74
2022/08/05 14:20:18;;;;;;;1.70;1.60;;;;;;;;;;5054560;28;20925;-74
2022/08/05 14:22:44;;;;;;;1.87;1.77;;;;;;;;;;5054301;28;20636;-75
2022/08/05 14:25:12;;;;;;;1.93;1.73;;;;;;;;;;5054439;28;20410;-75
2022/08/05 14:27:38;;;;;;;2.93;2.47;;;;;;;;;;5054444;28;20449;-75
2022/08/05 14:30:04;;;;;;;4.17;2.40;;;;;;;;;;5054421;28;20784;-75
2022/08/05 14:32:30;;;;;;;1.63;1.63;;;;;;;;;;5053651;28;20444;-74
2022/08/05 14:34:56;;;;;;;4.30;2.47;;;;;;;;;;5054287;28;20484;-74
2022/08/05 14:37:22;;;;;;;2.40;2.30;;;;;;;;;;5054373;28;20907;-74
2022/08/05 14:39:48;;;;;;;8.63;2.10;;;;;;;;;;5054237;28;20426;-74
2022/08/05 14:42:14;;;;;;;2.80;2.30;;;;;;;;;;5052349;28;20426;-75
2022/08/05 14:44:40;;;;;;;17.30;2.30;;;;;;;;;;5054144;28;20183;-75
2022/08/05 14:47:05;;;;;;;2.40;2.40;;;;;;;;;;5053792;28;20411;-74